Time;durP1;ratioP1;P1;durP2;ratioP2;P2;SDS_P1;SDS_P2;PMS_P1;PMS_P2;Temp;Humidity;BMP_temperature;BMP_pressure;BME280_temperature;BME280_humidity;BME280_pressure;Samples;Min_cycle;Max_cycle;Signal;HPM_P1;HPM_P2
2022/06/14 00:26:49;;;;;;;;;;;;;;;;;;4328251;33;19979;-78
2022/06/14 00:29:45;;;;;;;;;;;;;;;;;;;;;
2022/06/14 00:31:59;;;;;;;;;;;;;;;;;;4326476;33;19943;-77
2022/06/14 00:39:54;;;;;;;;;;;;;;;;;;4314548;33;19979;-68
2022/06/14 00:42:19;;;;;;;;;;;;;;;;;;4321478;33;19935;-68
2022/06/14 00:44:44;;;;;;;;;;;;;;;;;;4317797;33;19936;-67
2022/06/14 00:47:09;;;;;;;;;;;;;;;;;;4314822;33;19943;-68
2022/06/14 00:49:34;;;;;;;;;;;;;;;;;;4319438;33;20022;-68
2022/06/14 00:51:59;;;;;;;;;;;;;;;;;;4320910;33;19947;-68
2022/06/14 00:54:25;;;;;;;;;;;;;;;;;;4327091;33;19959;-67
2022/06/14 00:56:50;;;;;;;;;;;;;;;;;;4335095;33;20346;-68
2022/06/14 00:59:15;;;;;;;;;;;;;;;;;;4333662;33;20372;-69
2022/06/14 01:01:40;;;;;;;;;;;;;;;;;;4335503;33;19953;-69
2022/06/14 01:04:05;;;;;;;;;;;;;;;;;;4334043;33;19983;-69
2022/06/14 01:06:30;;;;;;;;;;;;;;;;;;4333995;33;19938;-69
2022/06/14 01:08:56;;;;;;;;;;;;;;;;;;4334871;33;19962;-69
2022/06/14 01:11:21;;;;;;;;;;;;;;;;;;4333210;33;19958;-69
2022/06/14 01:13:46;;;;;;;;;;;;;;;;;;4339320;33;19935;-68
2022/06/14 01:16:11;;;;;;;;;;;;;;;;;;4330397;33;20008;-68
2022/06/14 01:18:37;;;;;;;;;;;;;;;;;;4335330;33;19939;-68
2022/06/14 01:21:02;;;;;;;;;;;;;;;;;;4348909;33;19977;-70
2022/06/14 01:23:27;;;;;;;;;;;;;;;;;;4348308;33;19946;-68
2022/06/14 01:25:52;;;;;;;;;;;;;;;;;;4348016;33;19934;-68
2022/06/14 01:28:17;;;;;;;;;;;;;;;;;;4334426;33;19939;-68
2022/06/14 01:30:43;;;;;;;;;;;;;;;;;;4349624;33;19998;-68
2022/06/14 01:33:08;;;;;;;;;;;;;;;;;;4348323;33;19973;-68
2022/06/14 01:35:34;;;;;;;;;;;;;;;;;;4349231;33;19970;-68
2022/06/14 01:38:00;;;;;;;;;;;;;;;;;;4342994;33;19998;-69
2022/06/14 01:40:25;;;;;;;;;;;;;;;;;;4323338;33;20262;-69
2022/06/14 01:42:50;;;;;;;;;;;;;;;;;;4319217;33;19939;-68
2022/06/14 01:45:15;;;;;;;;;;;;;;;;;;4319843;33;19952;-68
2022/06/14 01:47:40;;;;;;;;;;;;;;;;;;4306769;33;20334;-69
2022/06/14 01:52:49;;;;;;;;;;;;;;;;;;4319479;33;19975;-68
2022/06/14 01:55:15;;;;;;;;;;;;;;;;;;4306322;33;20346;-68
2022/06/14 01:57:40;;;;;;;;;;;;;;;;;;4319324;33;19952;-69
2022/06/14 02:00:05;;;;;;;;;;;;;;;;;;4319854;33;19943;-70
2022/06/14 02:02:30;;;;;;;;;;;;;;;;;;4320082;33;19991;-69
2022/06/14 02:04:55;;;;;;;;;;;;;;;;;;4319663;33;19954;-69
2022/06/14 02:07:21;;;;;;;;;;;;;;;;;;4317935;33;19939;-69
2022/06/14 02:09:46;;;;;;;;;;;;;;;;;;4311920;33;19946;-68
2022/06/14 02:12:11;;;;;;;;;;;;;;;;;;4334098;33;19954;-70
2022/06/14 02:14:36;;;;;;;;;;;;;;;;;;4332450;33;19943;-69
2022/06/14 02:17:01;;;;;;;;;;;;;;;;;;4332593;33;19935;-68
2022/06/14 02:19:26;;;;;;;;;;;;;;;;;;4334147;33;19994;-67
2022/06/14 02:21:51;;;;;;;;;;;;;;;;;;4333541;33;19943;-68
2022/06/14 02:24:17;;;;;;;;;;;;;;;;;;4333915;33;19935;-68
2022/06/14 02:26:42;;;;;;;;;;;;;;;;;;4332494;33;19943;-68
2022/06/14 02:29:07;;;;;;;;;;;;;;;;;;4318960;33;19954;-68
2022/06/14 02:31:32;;;;;;;;;;;;;;;;;;4319143;33;20261;-67
2022/06/14 02:33:57;;;;;;;;;;;;;;;;;;4334051;33;19953;-68
2022/06/14 02:36:22;;;;;;;;;;;;;;;;;;4320462;33;20257;-70
2022/06/14 02:38:47;;;;;;;;;;;;;;;;;;4331196;33;19939;-68
2022/06/14 02:41:12;;;;;;;;;;;;;;;;;;4319254;33;20015;-68
2022/06/14 02:43:38;;;;;;;;;;;;;;;;;;4304841;33;20303;-68
2022/06/14 02:46:03;;;;;;;;;;;;;;;;;;4319109;33;19954;-68
2022/06/14 02:48:28;;;;;;;;;;;;;;;;;;4318170;33;19965;-68
2022/06/14 02:50:53;;;;;;;;;;;;;;;;;;4317685;33;19939;-68
2022/06/14 02:53:18;;;;;;;;;;;;;;;;;;4305735;33;19950;-68
2022/06/14 02:55:43;;;;;;;;;;;;;;;;;;4304191;33;20353;-68
2022/06/14 02:58:08;;;;;;;;;;;;;;;;;;4304128;33;19950;-67
2022/06/14 03:00:34;;;;;;;;;;;;;;;;;;4317688;33;19993;-67
2022/06/14 03:02:59;;;;;;;;;;;;;;;;;;4317723;33;19935;-68
2022/06/14 03:05:24;;;;;;;;;;;;;;;;;;4317486;33;19943;-69
2022/06/14 03:07:49;;;;;;;;;;;;;;;;;;4317101;33;19954;-67
2022/06/14 03:10:14;;;;;;;;;;;;;;;;;;4329503;33;19974;-67
2022/06/14 03:12:39;;;;;;;;;;;;;;;;;;4320022;33;19939;-68
2022/06/14 03:15:04;;;;;;;;;;;;;;;;;;4333360;33;19957;-68
2022/06/14 03:17:30;;;;;;;;;;;;;;;;;;4333453;33;19979;-68
2022/06/14 03:19:55;;;;;;;;;;;;;;;;;;4333229;33;20380;-68
2022/06/14 03:22:20;;;;;;;;;;;;;;;;;;4324446;33;19944;-67
2022/06/14 03:24:45;;;;;;;;;;;;;;;;;;4318884;33;19936;-68
2022/06/14 03:27:10;;;;;;;;;;;;;;;;;;4305161;33;19995;-68
2022/06/14 03:29:35;;;;;;;;;;;;;;;;;;4318496;33;19978;-68
2022/06/14 03:32:00;;;;;;;;;;;;;;;;;;4318574;33;20023;-68
2022/06/14 03:34:25;;;;;;;;;;;;;;;;;;4305213;33;19939;-69
2022/06/14 03:36:50;;;;;;;;;;;;;;;;;;4318620;33;19970;-69
2022/06/14 03:39:16;;;;;;;;;;;;;;;;;;4322442;33;20002;-68
2022/06/14 03:41:43;;;;;;;;;;;;;;;;;;4331749;33;20302;-68
2022/06/14 03:44:08;;;;;;;;;;;;;;;;;;4332691;33;19939;-69
2022/06/14 03:46:33;;;;;;;;;;;;;;;;;;4332976;33;19935;-69
2022/06/14 03:48:58;;;;;;;;;;;;;;;;;;4332526;33;19935;-69
2022/06/14 03:51:24;;;;;;;;;;;;;;;;;;4331323;33;19962;-70
2022/06/14 03:53:49;;;;;;;;;;;;;;;;;;4331829;33;19931;-68
2022/06/14 03:56:14;;;;;;;;;;;;;;;;;;4331913;33;19950;-69
2022/06/14 03:58:39;;;;;;;;;;;;;;;;;;4332759;33;20266;-69
2022/06/14 04:01:04;;;;;;;;;;;;;;;;;;4332994;33;20015;-68
2022/06/14 04:03:30;;;;;;;;;;;;;;;;;;4331371;33;19935;-68
2022/06/14 04:05:55;;;;;;;;;;;;;;;;;;4332561;33;19950;-68
2022/06/14 04:08:20;;;;;;;;;;;;;;;;;;4329504;33;19935;-68
2022/06/14 04:10:46;;;;;;;;;;;;;;;;;;4303257;33;19982;-68
2022/06/14 04:13:11;;;;;;;;;;;;;;;;;;4318159;33;20270;-68
2022/06/14 04:15:36;;;;;;;;;;;;;;;;;;4303292;33;19947;-68
2022/06/14 04:18:01;;;;;;;;;;;;;;;;;;4318412;33;19955;-68
2022/06/14 04:20:26;;;;;;;;;;;;;;;;;;4316663;33;19958;-69
2022/06/14 04:22:51;;;;;;;;;;;;;;;;;;4316601;33;19935;-68
2022/06/14 04:25:16;;;;;;;;;;;;;;;;;;4317577;33;19956;-69
2022/06/14 04:27:41;;;;;;;;;;;;;;;;;;4318101;33;19935;-68
2022/06/14 04:30:06;;;;;;;;;;;;;;;;;;4317437;33;19959;-69
2022/06/14 04:32:32;;;;;;;;;;;;;;;;;;4317908;33;19954;-69
2022/06/14 04:34:57;;;;;;;;;;;;;;;;;;4317579;33;19974;-69
2022/06/14 04:37:22;;;;;;;;;;;;;;;;;;4317310;33;19952;-68
2022/06/14 04:39:47;;;;;;;;;;;;;;;;;;4312814;33;19950;-68
2022/06/14 04:42:12;;;;;;;;;;;;;;;;;;4330611;33;20284;-68
2022/06/14 04:44:37;;;;;;;;;;;;;;;;;;4332040;33;19986;-69
2022/06/14 04:47:02;;;;;;;;;;;;;;;;;;4331633;33;19953;-69
2022/06/14 04:49:27;;;;;;;;;;;;;;;;;;4331633;33;19935;-68
2022/06/14 04:51:52;;;;;;;;;;;;;;;;;;4330539;33;20314;-68
2022/06/14 04:54:18;;;;;;;;;;;;;;;;;;4330952;33;19990;-68
2022/06/14 04:56:43;;;;;;;;;;;;;;;;;;4330246;33;19975;-67
2022/06/14 04:59:08;;;;;;;;;;;;;;;;;;4330664;33;20289;-68
2022/06/14 05:01:33;;;;;;;;;;;;;;;;;;4330608;33;20356;-69
2022/06/14 05:03:58;;;;;;;;;;;;;;;;;;4331674;33;19939;-69
2022/06/14 05:06:24;;;;;;;;;;;;;;;;;;4332236;33;19943;-68
2022/06/14 05:08:49;;;;;;;;;;;;;;;;;;4323804;33;19939;-68
2022/06/14 05:11:14;;;;;;;;;;;;;;;;;;4317580;33;19985;-68
2022/06/14 05:13:39;;;;;;;;;;;;;;;;;;4316431;33;19935;-68
2022/06/14 05:16:05;;;;;;;;;;;;;;;;;;4315414;33;19986;-68
2022/06/14 05:18:30;;;;;;;;;;;;;;;;;;4316380;33;19936;-69
2022/06/14 05:20:55;;;;;;;;;;;;;;;;;;4302089;33;19974;-69
2022/06/14 05:23:21;;;;;;;;;;;;;;;;;;4317414;33;19954;-69
2022/06/14 05:25:46;;;;;;;;;;;;;;;;;;4303500;33;20283;-68
2022/06/14 05:28:11;;;;;;;;;;;;;;;;;;4301889;33;19939;-68
2022/06/14 05:30:37;;;;;;;;;;;;;;;;;;4316677;33;19952;-68
2022/06/14 05:33:02;;;;;;;;;;;;;;;;;;4316331;33;20039;-67
2022/06/14 05:35:27;;;;;;;;;;;;;;;;;;4319035;33;20019;-70
2022/06/14 05:37:52;;;;;;;;;;;;;;;;;;4317754;33;19939;-67
2022/06/14 05:40:17;;;;;;;;;;;;;;;;;;4318052;33;19955;-68
2022/06/14 05:42:42;;;;;;;;;;;;;;;;;;4329423;33;19935;-67
2022/06/14 05:45:07;;;;;;;;;;;;;;;;;;4334238;33;19954;-68
2022/06/14 05:47:32;;;;;;;;;;;;;;;;;;4332412;33;19939;-67
2022/06/14 05:49:58;;;;;;;;;;;;;;;;;;4318899;33;19990;-68
2022/06/14 05:52:23;;;;;;;;;;;;;;;;;;4333716;33;19958;-68
2022/06/14 05:54:48;;;;;;;;;;;;;;;;;;4334148;33;19947;-68
2022/06/14 05:57:13;;;;;;;;;;;;;;;;;;4333608;33;19970;-68
2022/06/14 05:59:38;;;;;;;;;;;;;;;;;;4332408;33;19943;-69
2022/06/14 06:02:03;;;;;;;;;;;;;;;;;;4332039;33;20381;-69
2022/06/14 06:04:28;;;;;;;;;;;;;;;;;;4333545;33;19939;-69
2022/06/14 06:06:53;;;;;;;;;;;;;;;;;;4320055;33;20388;-68
2022/06/14 06:09:18;;;;;;;;;;;;;;;;;;4322362;33;19995;-69
2022/06/14 06:11:43;;;;;;;;;;;;;;;;;;4317424;33;19982;-68
2022/06/14 06:14:09;;;;;;;;;;;;;;;;;;4318106;33;19943;-69
2022/06/14 06:16:39;;;;;;;;;;;;;;;;;;4319081;33;20172;-69
2022/06/14 06:19:04;;;;;;;;;;;;;;;;;;4318674;33;19971;-67
2022/06/14 06:21:29;;;;;;;;;;;;;;;;;;4316947;33;19936;-68
2022/06/14 06:23:54;;;;;;;;;;;;;;;;;;4305429;33;19981;-68
2022/06/14 06:26:19;;;;;;;;;;;;;;;;;;4317698;33;19935;-68
2022/06/14 06:28:44;;;;;;;;;;;;;;;;;;4317600;33;20006;-68
2022/06/14 06:31:09;;;;;;;;;;;;;;;;;;4318565;33;19953;-68
2022/06/14 06:33:35;;;;;;;;;;;;;;;;;;4318381;33;19954;-68
2022/06/14 06:36:00;;;;;;;;;;;;;;;;;;4319094;33;19991;-68
2022/06/14 06:38:25;;;;;;;;;;;;;;;;;;4322279;33;20321;-70
2022/06/14 06:41:49;;;;;;;;;;;;;;;;;;4333004;33;19936;-68
2022/06/14 06:43:35;;;;;;;;;;;;;;;;;;4332083;33;19935;-67
2022/06/14 06:46:00;;;;;;;;;;;;;;;;;;4332556;33;19935;-69
2022/06/14 06:48:25;;;;;;;;;;;;;;;;;;4331842;33;19973;-69
2022/06/14 06:50:50;;;;;;;;;;;;;;;;;;4318595;33;19994;-68
2022/06/14 06:53:15;;;;;;;;;;;;;;;;;;4319149;33;19950;-68
2022/06/14 06:55:40;;;;;;;;;;;;;;;;;;4333333;33;20385;-68
2022/06/14 06:58:06;;;;;;;;;;;;;;;;;;4332203;33;19935;-68
2022/06/14 07:00:31;;;;;;;;;;;;;;;;;;4318423;33;20305;-69
2022/06/14 07:02:56;;;;;;;;;;;;;;;;;;4332715;33;19939;-69
2022/06/14 07:05:21;;;;;;;;;;;;;;;;;;4331304;33;19938;-69
2022/06/14 07:07:46;;;;;;;;;;;;;;;;;;4316287;33;20334;-68
2022/06/14 07:10:11;;;;;;;;;;;;;;;;;;4317106;33;20305;-68
2022/06/14 07:12:36;;;;;;;;;;;;;;;;;;4318656;33;19950;-69
2022/06/14 07:15:01;;;;;;;;;;;;;;;;;;4316767;33;19943;-68
2022/06/14 07:17:26;;;;;;;;;;;;;;;;;;4316744;33;20286;-69
2022/06/14 07:19:51;;;;;;;;;;;;;;;;;;4318244;33;19935;-69
2022/06/14 07:22:16;;;;;;;;;;;;;;;;;;4318462;33;19947;-69
2022/06/14 07:24:41;;;;;;;;;;;;;;;;;;4318042;33;19935;-69
2022/06/14 07:27:07;;;;;;;;;;;;;;;;;;4304844;33;20314;-69
2022/06/14 07:29:32;;;;;;;;;;;;;;;;;;4317842;33;19939;-69
2022/06/14 07:31:57;;;;;;;;;;;;;;;;;;4316941;33;19947;-69
2022/06/14 07:34:22;;;;;;;;;;;;;;;;;;4303550;33;19971;-69
2022/06/14 07:36:47;;;;;;;;;;;;;;;;;;4316829;33;19984;-70
2022/06/14 07:39:12;;;;;;;;;;;;;;;;;;4327776;33;19947;-69
2022/06/14 07:41:37;;;;;;;;;;;;;;;;;;4333052;33;19970;-69
2022/06/14 07:44:02;;;;;;;;;;;;;;;;;;4331960;33;19935;-69
2022/06/14 07:46:27;;;;;;;;;;;;;;;;;;4331062;33;19943;-69
2022/06/14 07:48:53;;;;;;;;;;;;;;;;;;4332173;33;19935;-69
2022/06/14 07:51:20;;;;;;;;;;;;;;;;;;4331041;33;19943;-69
2022/06/14 07:53:45;;;;;;;;;;;;;;;;;;4332538;33;19989;-68
2022/06/14 07:56:10;;;;;;;;;;;;;;;;;;4330537;33;20326;-68
2022/06/14 07:58:35;;;;;;;;;;;;;;;;;;4317040;33;19954;-68
2022/06/14 08:01:10;;;;;;;;;;;;;;;;;;4331261;33;19951;-68
2022/06/14 08:03:36;;;;;;;;;;;;;;;;;;4332030;33;19939;-68
2022/06/14 08:06:01;;;;;;;;;;;;;;;;;;4332228;33;20233;-68
2022/06/14 08:08:26;;;;;;;;;;;;;;;;;;4318081;33;20291;-68
2022/06/14 08:10:52;;;;;;;;;;;;;;;;;;4316624;33;19981;-68
2022/06/14 08:13:18;;;;;;;;;;;;;;;;;;4317288;33;19940;-69
2022/06/14 08:15:43;;;;;;;;;;;;;;;;;;4302898;33;19958;-69
2022/06/14 08:18:08;;;;;;;;;;;;;;;;;;4317260;33;20289;-69
2022/06/14 08:20:33;;;;;;;;;;;;;;;;;;4316334;33;19935;-69
2022/06/14 08:22:58;;;;;;;;;;;;;;;;;;4316883;33;19954;-69
2022/06/14 08:25:23;;;;;;;;;;;;;;;;;;4317752;33;19935;-68
2022/06/14 08:27:48;;;;;;;;;;;;;;;;;;4315432;33;19939;-69
2022/06/14 08:30:13;;;;;;;;;;;;;;;;;;4317337;33;19939;-68
2022/06/14 08:32:38;;;;;;;;;;;;;;;;;;4315998;33;19936;-69
2022/06/14 08:35:03;;;;;;;;;;;;;;;;;;4317830;33;19969;-69
2022/06/14 08:37:29;;;;;;;;;;;;;;;;;;4315836;33;19959;-69
2022/06/14 08:39:54;;;;;;;;;;;;;;;;;;4316575;33;19936;-70
2022/06/14 08:42:19;;;;;;;;;;;;;;;;;;4302675;33;19955;-69
2022/06/14 08:44:44;;;;;;;;;;;;;;;;;;4317216;33;19987;-69
2022/06/14 08:47:09;;;;;;;;;;;;;;;;;;4317177;33;19991;-69
2022/06/14 08:49:35;;;;;;;;;;;;;;;;;;4316673;33;20364;-69
2022/06/14 08:52:00;;;;;;;;;;;;;;;;;;4302594;33;19954;-69
2022/06/14 08:54:25;;;;;;;;;;;;;;;;;;4315715;33;20018;-69
2022/06/14 08:56:50;;;;;;;;;;;;;;;;;;4302402;33;19936;-69
2022/06/14 08:59:15;;;;;;;;;;;;;;;;;;4315848;33;19951;-69
2022/06/14 09:01:40;;;;;;;;;;;;;;;;;;4317162;33;19951;-69
2022/06/14 09:04:05;;;;;;;;;;;;;;;;;;4316750;33;19949;-69
2022/06/14 09:06:32;;;;;;;;;;;;;;;;;;4315943;33;19936;-69
2022/06/14 09:08:57;;;;;;;;;;;;;;;;;;4317658;33;19935;-70
2022/06/14 09:11:22;;;;;;;;;;;;;;;;;;4320089;33;19987;-68
2022/06/14 09:13:47;;;;;;;;;;;;;;;;;;4319904;33;19969;-68
2022/06/14 09:16:12;;;;;;;;;;;;;;;;;;4319835;33;20299;-69
2022/06/14 09:18:37;;;;;;;;;;;;;;;;;;4317772;33;19994;-69
2022/06/14 09:21:02;;;;;;;;;;;;;;;;;;4319505;33;19970;-70
2022/06/14 09:23:27;;;;;;;;;;;;;;;;;;4319092;33;19999;-69
2022/06/14 09:25:52;;;;;;;;;;;;;;;;;;4318778;33;19944;-69
2022/06/14 09:28:18;;;;;;;;;;;;;;;;;;4318306;33;19966;-69
2022/06/14 09:30:43;;;;;;;;;;;;;;;;;;4317612;33;20322;-69
2022/06/14 09:33:13;;;;;;;;;;;;;;;;;;4305998;33;19944;-69
2022/06/14 09:35:38;;;;;;;;;;;;;;;;;;4318870;33;19940;-69
2022/06/14 09:38:03;;;;;;;;;;;;;;;;;;4330460;33;19935;-69
2022/06/14 09:40:28;;;;;;;;;;;;;;;;;;4332455;33;19951;-69
2022/06/14 09:42:53;;;;;;;;;;;;;;;;;;4334429;33;19935;-69
2022/06/14 09:45:18;;;;;;;;;;;;;;;;;;4319146;33;19939;-69
2022/06/14 09:47:43;;;;;;;;;;;;;;;;;;4333752;33;20041;-69
2022/06/14 09:50:08;;;;;;;;;;;;;;;;;;4319054;33;20278;-69
2022/06/14 09:52:34;;;;;;;;;;;;;;;;;;4332770;33;19966;-70
2022/06/14 09:54:59;;;;;;;;;;;;;;;;;;4332669;33;19940;-70
2022/06/14 09:57:24;;;;;;;;;;;;;;;;;;4334146;33;19994;-69
2022/06/14 09:59:49;;;;;;;;;;;;;;;;;;4332740;33;19939;-70
2022/06/14 10:02:14;;;;;;;;;;;;;;;;;;4334105;33;19958;-69
2022/06/14 10:04:39;;;;;;;;;;;;;;;;;;4319251;33;19939;-70
2022/06/14 10:07:04;;;;;;;;;;;;;;;;;;4325637;33;19966;-68
2022/06/14 10:09:30;;;;;;;;;;;;;;;;;;4318627;33;19944;-68
2022/06/14 10:11:55;;;;;;;;;;;;;;;;;;4319117;33;19951;-69
2022/06/14 10:14:21;;;;;;;;;;;;;;;;;;4304536;33;20246;-68
2022/06/14 10:16:46;;;;;;;;;;;;;;;;;;4304247;33;19982;-68
2022/06/14 10:19:11;;;;;;;;;;;;;;;;;;4318177;33;20019;-69
2022/06/14 10:21:36;;;;;;;;;;;;;;;;;;4317038;33;19950;-69
2022/06/14 10:24:01;;;;;;;;;;;;;;;;;;4318252;33;19944;-70
2022/06/14 10:29:10;;;;;;;;;;;;;;;;;;4318826;33;19990;-69
2022/06/14 10:31:35;;;;;;;;;;;;;;;;;;4318036;33;19947;-69
2022/06/14 10:34:00;;;;;;;;;;;;;;;;;;4318315;33;19935;-68
2022/06/14 10:36:25;;;;;;;;;;;;;;;;;;4322190;33;20007;-68
2022/06/14 10:38:50;;;;;;;;;;;;;;;;;;4332533;33;19939;-68
2022/06/14 10:41:16;;;;;;;;;;;;;;;;;;4333719;33;19987;-68
2022/06/14 10:43:41;;;;;;;;;;;;;;;;;;4331798;33;19969;-68
2022/06/14 10:46:06;;;;;;;;;;;;;;;;;;4331930;33;20035;-69
2022/06/14 10:48:31;;;;;;;;;;;;;;;;;;4333776;33;19939;-69
2022/06/14 10:50:56;;;;;;;;;;;;;;;;;;4332050;33;19954;-69
2022/06/14 10:53:21;;;;;;;;;;;;;;;;;;4319520;33;20239;-69
2022/06/14 10:55:46;;;;;;;;;;;;;;;;;;4332286;33;19939;-69
2022/06/14 10:58:11;;;;;;;;;;;;;;;;;;4331863;33;19940;-69
2022/06/14 11:00:36;;;;;;;;;;;;;;;;;;4317843;33;19953;-69
2022/06/14 11:03:01;;;;;;;;;;;;;;;;;;4331886;33;20254;-69
2022/06/14 11:05:27;;;;;;;;;;;;;;;;;;4327331;33;20322;-69
2022/06/14 11:07:52;;;;;;;;;;;;;;;;;;4332205;33;19954;-69
2022/06/14 11:10:19;;;;;;;;;;;;;;;;;;4317628;33;20273;-69
2022/06/14 11:12:44;;;;;;;;;;;;;;;;;;4303341;33;19971;-69
2022/06/14 11:15:09;;;;;;;;;;;;;;;;;;4316370;33;19957;-68
2022/06/14 11:17:34;;;;;;;;;;;;;;;;;;4303250;33;19943;-69
2022/06/14 11:19:59;;;;;;;;;;;;;;;;;;4316786;33;19970;-70
2022/06/14 11:22:27;;;;;;;;;;;;;;;;;;4316372;33;19975;-69
2022/06/14 11:24:53;;;;;;;;;;;;;;;;;;4318247;33;19999;-69
2022/06/14 11:27:18;;;;;;;;;;;;;;;;;;4304118;33;19940;-68
2022/06/14 11:29:43;;;;;;;;;;;;;;;;;;4316260;33;20290;-68
2022/06/14 11:32:08;;;;;;;;;;;;;;;;;;4317021;33;19961;-69
2022/06/14 11:34:33;;;;;;;;;;;;;;;;;;4318797;33;19939;-69
2022/06/14 11:36:58;;;;;;;;;;;;;;;;;;4324513;33;19939;-69
2022/06/14 11:39:23;;;;;;;;;;;;;;;;;;4301928;33;19970;-69
2022/06/14 11:41:48;;;;;;;;;;;;;;;;;;4302272;33;19979;-69
2022/06/14 11:44:13;;;;;;;;;;;;;;;;;;4302880;33;20341;-69
2022/06/14 11:46:38;;;;;;;;;;;;;;;;;;4289974;33;19946;-69
2022/06/14 11:49:04;;;;;;;;;;;;;;;;;;4302578;33;19976;-69
2022/06/14 11:51:29;;;;;;;;;;;;;;;;;;4289665;33;19952;-72
2022/06/14 11:53:54;;;;;;;;;;;;;;;;;;4301841;33;19950;-69
2022/06/14 11:56:19;;;;;;;;;;;;;;;;;;4301392;33;19935;-70
2022/06/14 11:58:44;;;;;;;;;;;;;;;;;;4301497;33;20350;-68
2022/06/14 12:01:09;;;;;;;;;;;;;;;;;;4302530;33;19936;-69
2022/06/14 12:03:34;;;;;;;;;;;;;;;;;;4302636;33;20326;-68
2022/06/14 12:06:00;;;;;;;;;;;;;;;;;;4321297;33;19935;-69
2022/06/14 12:08:25;;;;;;;;;;;;;;;;;;4330796;33;19973;-68
2022/06/14 12:10:50;;;;;;;;;;;;;;;;;;4331911;33;19977;-68
2022/06/14 12:13:15;;;;;;;;;;;;;;;;;;4330931;33;20269;-69
2022/06/14 12:15:40;;;;;;;;;;;;;;;;;;4332433;33;20309;-69
2022/06/14 12:18:07;;;;;;;;;;;;;;;;;;4331768;33;19939;-68
2022/06/14 12:20:32;;;;;;;;;;;;;;;;;;4331945;33;19975;-69
2022/06/14 12:22:57;;;;;;;;;;;;;;;;;;4332087;33;19939;-69
2022/06/14 12:28:06;;;;;;;;;;;;;;;;;;4331150;33;19966;-68
2022/06/14 12:30:32;;;;;;;;;;;;;;;;;;4331277;33;19943;-68
2022/06/14 12:32:57;;;;;;;;;;;;;;;;;;4331800;33;19935;-69
2022/06/14 12:35:23;;;;;;;;;;;;;;;;;;4325193;33;20089;-68
2022/06/14 12:37:48;;;;;;;;;;;;;;;;;;4315106;33;19948;-69
2022/06/14 12:40:13;;;;;;;;;;;;;;;;;;4317329;33;19979;-69
2022/06/14 12:42:38;;;;;;;;;;;;;;;;;;4316514;33;19959;-69
2022/06/14 12:45:04;;;;;;;;;;;;;;;;;;4319877;33;20376;-69
2022/06/14 12:47:29;;;;;;;;;;;;;;;;;;4318615;33;19943;-68
2022/06/14 12:49:54;;;;;;;;;;;;;;;;;;4319006;33;19971;-69
2022/06/14 12:52:19;;;;;;;;;;;;;;;;;;4307062;33;20228;-69
2022/06/14 12:54:44;;;;;;;;;;;;;;;;;;4320182;33;19989;-69
2022/06/14 12:57:09;;;;;;;;;;;;;;;;;;4320430;33;19939;-69
2022/06/14 12:59:35;;;;;;;;;;;;;;;;;;4318415;33;20017;-68
2022/06/14 13:02:00;;;;;;;;;;;;;;;;;;4320386;33;19939;-69
2022/06/14 13:04:25;;;;;;;;;;;;;;;;;;4320759;33;19974;-70
2022/06/14 13:06:53;;;;;;;;;;;;;;;;;;4318757;33;19939;-69
2022/06/14 13:09:18;;;;;;;;;;;;;;;;;;4319641;33;19991;-69
2022/06/14 13:11:46;;;;;;;;;;;;;;;;;;4320280;33;19978;-69
2022/06/14 13:14:11;;;;;;;;;;;;;;;;;;4317975;33;19935;-70
2022/06/14 13:16:36;;;;;;;;;;;;;;;;;;4319178;33;19954;-69
2022/06/14 13:19:02;;;;;;;;;;;;;;;;;;4318924;33;19949;-70
2022/06/14 13:21:27;;;;;;;;;;;;;;;;;;4305105;33;19939;-69
2022/06/14 13:23:52;;;;;;;;;;;;;;;;;;4319811;33;19940;-70
2022/06/14 13:26:17;;;;;;;;;;;;;;;;;;4317581;33;20014;-69
2022/06/14 13:28:42;;;;;;;;;;;;;;;;;;4319911;33;20310;-69
2022/06/14 13:31:07;;;;;;;;;;;;;;;;;;4319616;33;19943;-69
2022/06/14 13:33:32;;;;;;;;;;;;;;;;;;4317600;33;19939;-69
2022/06/14 13:35:57;;;;;;;;;;;;;;;;;;4329198;33;19939;-68
2022/06/14 13:38:22;;;;;;;;;;;;;;;;;;4331967;33;20379;-68
2022/06/14 13:40:48;;;;;;;;;;;;;;;;;;4319262;33;19943;-68
2022/06/14 13:43:13;;;;;;;;;;;;;;;;;;4333916;33;19978;-69
2022/06/14 13:45:38;;;;;;;;;;;;;;;;;;4333937;33;19942;-69
2022/06/14 13:48:03;;;;;;;;;;;;;;;;;;4333555;33;20285;-69
2022/06/14 13:50:28;;;;;;;;;;;;;;;;;;4332103;33;20365;-70
2022/06/14 13:52:53;;;;;;;;;;;;;;;;;;4332961;33;19990;-69
2022/06/14 13:55:18;;;;;;;;;;;;;;;;;;4332896;33;19947;-70
2022/06/14 13:57:47;;;;;;;;;;;;;;;;;;4333402;33;20273;-70
2022/06/14 14:00:12;;;;;;;;;;;;;;;;;;4333412;33;19949;-69
2022/06/14 14:02:39;;;;;;;;;;;;;;;;;;4332556;33;19939;-68
2022/06/14 14:05:04;;;;;;;;;;;;;;;;;;4331568;33;19993;-69
2022/06/14 14:07:29;;;;;;;;;;;;;;;;;;4319834;33;19935;-70
2022/06/14 14:09:54;;;;;;;;;;;;;;;;;;4331845;33;19998;-70
2022/06/14 14:12:19;;;;;;;;;;;;;;;;;;4331954;33;19982;-70
2022/06/14 14:14:44;;;;;;;;;;;;;;;;;;4320196;33;19982;-69
2022/06/14 14:17:09;;;;;;;;;;;;;;;;;;4332909;33;19978;-69
2022/06/14 14:19:34;;;;;;;;;;;;;;;;;;4333654;33;19950;-68
2022/06/14 14:21:59;;;;;;;;;;;;;;;;;;4332178;33;19950;-69
2022/06/14 14:24:24;;;;;;;;;;;;;;;;;;4333777;33;19978;-70
2022/06/14 14:26:50;;;;;;;;;;;;;;;;;;4333546;33;20362;-69
2022/06/14 14:29:15;;;;;;;;;;;;;;;;;;4333810;33;19978;-69
2022/06/14 14:31:40;;;;;;;;;;;;;;;;;;4334138;33;19944;-69
2022/06/14 14:34:05;;;;;;;;;;;;;;;;;;4330286;33;19971;-69
2022/06/14 14:36:30;;;;;;;;;;;;;;;;;;4318799;33;19965;-69
2022/06/14 14:38:55;;;;;;;;;;;;;;;;;;4318547;33;19979;-70
2022/06/14 14:44:04;;;;;;;;;;;;;;;;;;4318644;33;20353;-70
2022/06/14 14:46:29;;;;;;;;;;;;;;;;;;4318563;33;20314;-69
2022/06/14 14:48:54;;;;;;;;;;;;;;;;;;4317388;33;19963;-69
2022/06/14 14:51:19;;;;;;;;;;;;;;;;;;4317246;33;19943;-69
2022/06/14 14:53:44;;;;;;;;;;;;;;;;;;4316339;33;20023;-69
2022/06/14 14:56:09;;;;;;;;;;;;;;;;;;4316825;33;19935;-69
2022/06/14 14:58:34;;;;;;;;;;;;;;;;;;4316684;33;20466;-70
2022/06/14 15:06:28;;;;;;;;;;;;;;;;;;4316813;33;20309;-70
2022/06/14 15:08:54;;;;;;;;;;;;;;;;;;4317961;33;19943;-69
2022/06/14 15:11:19;;;;;;;;;;;;;;;;;;4316647;33;19939;-68
2022/06/14 15:13:45;;;;;;;;;;;;;;;;;;4317024;33;20263;-69
2022/06/14 15:16:10;;;;;;;;;;;;;;;;;;4316751;33;19959;-68
2022/06/14 15:21:19;;;;;;;;;;;;;;;;;;4317641;33;20377;-68
2022/06/14 15:23:44;;;;;;;;;;;;;;;;;;4318259;33;19998;-68
2022/06/14 15:26:09;;;;;;;;;;;;;;;;;;4304197;33;19939;-69
2022/06/14 15:28:34;;;;;;;;;;;;;;;;;;4316772;33;19949;-69
2022/06/14 15:31:00;;;;;;;;;;;;;;;;;;4316377;33;20257;-69
2022/06/14 15:33:26;;;;;;;;;;;;;;;;;;4316795;33;20078;-69
2022/06/14 15:35:52;;;;;;;;;;;;;;;;;;4331423;33;19947;-69
2022/06/14 15:38:17;;;;;;;;;;;;;;;;;;4331639;33;19950;-69
2022/06/14 15:40:42;;;;;;;;;;;;;;;;;;4331463;33;19939;-69
2022/06/14 15:43:08;;;;;;;;;;;;;;;;;;4331076;33;19957;-69
2022/06/14 15:45:33;;;;;;;;;;;;;;;;;;4332441;33;19958;-68
2022/06/14 15:47:58;;;;;;;;;;;;;;;;;;4330569;33;20266;-70
2022/06/14 15:50:23;;;;;;;;;;;;;;;;;;4331996;33;19935;-69
2022/06/14 15:52:48;;;;;;;;;;;;;;;;;;4331128;33;19983;-69
2022/06/14 15:55:13;;;;;;;;;;;;;;;;;;4331622;33;19947;-69
2022/06/14 15:57:38;;;;;;;;;;;;;;;;;;4330703;33;20001;-69
2022/06/14 16:00:04;;;;;;;;;;;;;;;;;;4330955;33;20266;-68
2022/06/14 16:02:30;;;;;;;;;;;;;;;;;;4332192;33;19939;-68
2022/06/14 16:04:56;;;;;;;;;;;;;;;;;;4321819;33;19987;-69
2022/06/14 16:07:21;;;;;;;;;;;;;;;;;;4316988;33;19946;-68
2022/06/14 16:09:46;;;;;;;;;;;;;;;;;;4317697;33;19974;-68
2022/06/14 16:12:11;;;;;;;;;;;;;;;;;;4315797;33;19943;-68
2022/06/14 16:14:36;;;;;;;;;;;;;;;;;;4316682;33;20014;-69
2022/06/14 16:17:01;;;;;;;;;;;;;;;;;;4315436;33;19990;-69
2022/06/14 16:19:27;;;;;;;;;;;;;;;;;;4317277;33;19935;-68
2022/06/14 16:21:52;;;;;;;;;;;;;;;;;;4303989;33;19970;-68
2022/06/14 16:24:18;;;;;;;;;;;;;;;;;;4302858;33;19962;-69
2022/06/14 16:26:43;;;;;;;;;;;;;;;;;;4315930;33;19935;-69
2022/06/14 16:29:08;;;;;;;;;;;;;;;;;;4317647;33;20267;-69
2022/06/14 16:31:33;;;;;;;;;;;;;;;;;;4317608;33;19939;-68
2022/06/14 16:33:58;;;;;;;;;;;;;;;;;;4316231;33;19936;-69
2022/06/14 16:36:23;;;;;;;;;;;;;;;;;;4317838;33;19936;-69
2022/06/14 16:38:48;;;;;;;;;;;;;;;;;;4302852;33;19998;-69
2022/06/14 16:41:15;;;;;;;;;;;;;;;;;;4316142;33;19951;-69
2022/06/14 16:43:41;;;;;;;;;;;;;;;;;;4317490;33;19974;-69
2022/06/14 16:46:06;;;;;;;;;;;;;;;;;;4302068;33;19986;-70
2022/06/14 16:48:31;;;;;;;;;;;;;;;;;;4303689;33;19955;-69
2022/06/14 16:50:56;;;;;;;;;;;;;;;;;;4303527;33;19940;-69
2022/06/14 16:53:21;;;;;;;;;;;;;;;;;;4317024;33;19951;-69
2022/06/14 16:55:46;;;;;;;;;;;;;;;;;;4315538;33;19935;-69
2022/06/14 16:58:11;;;;;;;;;;;;;;;;;;4317280;33;19935;-69
2022/06/14 17:00:38;;;;;;;;;;;;;;;;;;4317353;33;19983;-69
2022/06/14 17:03:09;;;;;;;;;;;;;;;;;;4315408;33;19946;-69
2022/06/14 17:05:35;;;;;;;;;;;;;;;;;;4330604;33;19947;-69
2022/06/14 17:08:00;;;;;;;;;;;;;;;;;;4330913;33;19945;-69
2022/06/14 17:10:26;;;;;;;;;;;;;;;;;;4329567;33;20034;-70
2022/06/14 17:12:51;;;;;;;;;;;;;;;;;;4315610;33;19959;-69
2022/06/14 17:15:16;;;;;;;;;;;;;;;;;;4301454;33;20370;-69
2022/06/14 17:17:41;;;;;;;;;;;;;;;;;;4316911;33;19950;-69
2022/06/14 17:20:06;;;;;;;;;;;;;;;;;;4303242;33;19940;-68
2022/06/14 17:22:31;;;;;;;;;;;;;;;;;;4316930;33;19935;-68